createdAt,value
2022-12-01T00:01:20.954Z,99731.94
2022-12-01T00:03:47.773Z,99725.09
2022-12-01T00:06:19.882Z,99734.72
2022-12-01T00:09:09.422Z,99736.22
2022-12-01T00:11:37.752Z,99728.31
2022-12-01T00:14:05.284Z,99729.28
2022-12-01T00:16:32.841Z,99733.47
2022-12-01T00:18:59.782Z,99737.59
2022-12-01T00:21:27.287Z,99736.81
2022-12-01T00:23:58.544Z,99735.56
2022-12-01T00:26:26.468Z,99744.16
2022-12-01T00:28:58.773Z,99736.34
2022-12-01T00:31:26.161Z,99737.88
2022-12-01T00:33:52.920Z,99733.66
2022-12-01T00:36:19.425Z,99736.03
2022-12-01T00:38:46.781Z,99737.75
2022-12-01T00:41:13.715Z,99742.03
2022-12-01T00:43:40.463Z,99748.16
2022-12-01T00:46:07.784Z,99738.53
2022-12-01T00:48:34.503Z,99751.66
2022-12-01T00:51:01.506Z,99748.22
2022-12-01T00:53:28.012Z,99756.75
2022-12-01T00:55:54.748Z,99753.09
2022-12-01T00:58:21.824Z,99758.25
2022-12-01T01:00:49.205Z,99759.91
2022-12-01T01:03:16.149Z,99760.72
2022-12-01T01:05:43.836Z,99766.16
2022-12-01T01:08:15.018Z,99767.69
2022-12-01T01:10:43.796Z,99761.84
2022-12-01T01:13:11.619Z,99764.38
2022-12-01T01:15:38.637Z,99770.34
2022-12-01T01:18:05.710Z,99760.47
2022-12-01T01:20:32.671Z,99758.00
2022-12-01T01:23:00.352Z,99762.44
2022-12-01T01:25:26.874Z,99768.56
2022-12-01T01:27:53.335Z,99762.25
2022-12-01T01:30:20.823Z,99763.69
2022-12-01T01:32:47.430Z,99759.47
2022-12-01T01:35:13.945Z,99761.97
2022-12-01T01:37:40.598Z,99767.19
2022-12-01T01:40:07.649Z,99773.53
2022-12-01T01:42:34.194Z,99771.13
2022-12-01T01:45:00.876Z,99774.63
2022-12-01T01:47:34.940Z,99783.81
2022-12-01T01:50:10.727Z,99772.81
2022-12-01T01:52:43.092Z,99769.72
2022-12-01T01:55:10.082Z,99778.66
2022-12-01T01:57:37.799Z,99773.38
2022-12-01T02:00:30.321Z,99775.38
2022-12-01T02:03:00.339Z,99778.75
2022-12-01T02:05:34.521Z,99777.78
2022-12-01T02:08:02.512Z,99774.50
2022-12-01T02:11:07.559Z,99774.59
2022-12-01T02:13:45.223Z,99773.03
2022-12-01T02:16:39.264Z,99774.59
2022-12-01T02:19:38.607Z,99779.81
2022-12-01T02:22:52.177Z,99779.28
2022-12-01T02:25:48.063Z,99785.41
2022-12-01T02:28:40.669Z,99786.16
2022-12-01T02:31:20.242Z,99787.66
2022-12-01T02:33:56.239Z,99777.06
2022-12-01T02:36:35.073Z,99781.47
2022-12-01T02:39:06.960Z,99779.97
2022-12-01T02:41:43.045Z,99777.06
2022-12-01T02:44:19.723Z,99791.97
2022-12-01T02:46:52.766Z,99793.63
2022-12-01T02:49:25.214Z,99779.69
2022-12-01T02:51:57.459Z,99781.84
2022-12-01T02:54:25.602Z,99775.81
2022-12-01T02:56:55.895Z,99784.63
2022-12-01T02:59:24.321Z,99781.19
2022-12-01T03:02:02.818Z,99773.97
2022-12-01T03:04:35.481Z,99777.59
2022-12-01T03:07:16.112Z,99776.81
2022-12-01T03:09:51.940Z,99773.50
2022-12-01T03:12:36.703Z,99774.47
2022-12-01T03:15:42.667Z,99775.41
2022-12-01T03:18:18.051Z,99772.88
2022-12-01T03:20:54.338Z,99772.97
2022-12-01T03:23:25.947Z,99772.69
2022-12-01T03:25:55.764Z,99766.56
2022-12-01T03:28:28.983Z,99773.94
2022-12-01T03:31:03.263Z,99773.94
2022-12-01T03:33:40.351Z,99778.25
2022-12-01T03:36:19.579Z,99780.06
2022-12-01T03:38:52.122Z,99783.06
2022-12-01T03:41:25.101Z,99777.78
2022-12-01T03:44:08.839Z,99778.44
2022-12-01T03:46:54.882Z,99773.19
2022-12-01T03:49:24.871Z,99773.63
2022-12-01T03:52:31.728Z,99771.31
2022-12-01T03:55:18.248Z,99775.47
2022-12-01T03:58:01.629Z,99777.44
2022-12-01T04:00:29.182Z,99781.00
2022-12-01T04:02:57.816Z,99781.78
2022-12-01T04:05:25.712Z,99780.13
2022-12-01T04:07:53.266Z,99774.91
2022-12-01T04:10:19.909Z,99779.34
2022-12-01T04:12:46.374Z,99781.91
2022-12-01T04:15:14.488Z,99777.38
2022-12-01T04:17:45.929Z,99781.53
2022-12-01T04:20:20.096Z,99780.44
2022-12-01T04:22:46.653Z,99776.25
2022-12-01T04:25:13.140Z,99777.97
2022-12-01T04:27:40.219Z,99780.72
2022-12-01T04:30:07.990Z,99779.69
2022-12-01T04:32:44.597Z,99774.31
2022-12-01T04:35:12.376Z,99785.88
2022-12-01T04:37:44.859Z,99784.91
2022-12-01T04:40:11.879Z,99780.38
2022-12-01T04:42:38.367Z,99784.78
2022-12-01T04:45:05.153Z,99781.34
2022-12-01T04:47:31.647Z,99783.81
2022-12-01T04:49:58.172Z,99789.25
2022-12-01T04:52:24.717Z,99790.06
2022-12-01T04:54:51.198Z,99790.13
2022-12-01T04:57:20.546Z,99786.69
2022-12-01T04:59:47.133Z,99786.13
2022-12-01T05:02:13.916Z,99786.25
2022-12-01T05:04:41.763Z,99792.25
2022-12-01T05:07:08.535Z,99788.88
2022-12-01T05:09:35.120Z,99801.78
2022-12-01T05:12:01.572Z,99799.88
2022-12-01T05:14:31.037Z,99791.22
2022-12-01T05:16:58.254Z,99798.53
2022-12-01T05:19:46.435Z,99793.50
2022-12-01T05:22:13.035Z,99800.31
2022-12-01T05:24:39.580Z,99800.09
2022-12-01T05:27:09.193Z,99803.00
2022-12-01T05:29:38.431Z,99813.56
2022-12-01T05:32:05.324Z,99806.75
2022-12-01T05:34:31.855Z,99804.78
2022-12-01T05:36:58.329Z,99796.28
2022-12-01T05:39:27.963Z,99803.13
2022-12-01T05:41:57.289Z,99806.03
2022-12-01T05:44:23.851Z,99807.47
2022-12-01T05:46:53.122Z,99806.56
2022-12-01T05:49:19.580Z,99808.84
2022-12-01T05:51:46.129Z,99813.31
2022-12-01T05:54:12.661Z,99808.34
2022-12-01T05:56:39.178Z,99812.91
2022-12-01T05:59:08.900Z,99818.53
2022-12-01T06:01:35.446Z,99819.84
2022-12-01T06:04:02.044Z,99821.00
2022-12-01T06:06:28.596Z,99819.09
2022-12-01T06:08:55.156Z,99823.44
2022-12-01T06:11:22.055Z,99829.66
2022-12-01T06:13:48.561Z,99822.41
2022-12-01T06:16:18.072Z,99831.19
2022-12-01T06:18:44.803Z,99826.16
2022-12-01T06:21:11.270Z,99825.06
2022-12-01T06:23:38.477Z,99834.63
2022-12-01T06:26:07.825Z,99840.28
2022-12-01T06:28:34.724Z,99842.09
2022-12-01T06:31:03.417Z,99837.03
2022-12-01T06:33:31.442Z,99839.25
2022-12-01T06:36:03.154Z,99841.09
2022-12-01T06:38:35.165Z,99851.72
2022-12-01T06:41:05.688Z,99857.75
2022-12-01T06:43:32.409Z,99856.63
2022-12-01T06:46:03.425Z,99863.56
2022-12-01T06:48:30.953Z,99857.44
2022-12-01T06:51:01.539Z,99858.34
2022-12-01T06:53:28.804Z,99869.53
2022-12-01T06:56:00.993Z,99865.41
2022-12-01T06:58:28.011Z,99870.69
2022-12-01T07:00:55.032Z,99875.19
2022-12-01T07:03:24.192Z,99864.59
2022-12-01T07:06:01.277Z,99867.38
2022-12-01T07:08:29.350Z,99861.84
2022-12-01T07:11:00.312Z,99868.63
2022-12-01T07:13:32.862Z,99867.50
2022-12-01T07:16:00.644Z,99869.53
2022-12-01T07:18:28.685Z,99869.53
2022-12-01T07:21:05.586Z,99879.72
2022-12-01T07:23:32.138Z,99881.53
2022-12-01T07:26:14.455Z,99884.84
2022-12-01T07:28:41.772Z,99888.13
2022-12-01T07:31:15.371Z,99890.91
2022-12-01T07:33:42.507Z,99896.03
2022-12-01T07:36:13.827Z,99897.75
2022-12-01T07:38:40.385Z,99908.19
2022-12-01T07:41:20.144Z,99906.63
2022-12-01T07:43:48.043Z,99909.84
2022-12-01T07:46:23.334Z,99909.00
2022-12-01T07:48:51.003Z,99904.63
2022-12-01T07:51:17.806Z,99902.97
2022-12-01T07:53:49.311Z,99911.13
2022-12-01T07:56:19.047Z,99906.81
2022-12-01T07:58:45.772Z,99912.72
2022-12-01T08:01:19.446Z,99909.00
2022-12-01T08:03:48.850Z,99903.94
2022-12-01T08:06:16.970Z,99907.38
2022-12-01T08:08:43.608Z,99914.09
2022-12-01T08:11:13.585Z,99903.72
2022-12-01T08:13:41.376Z,99909.16
2022-12-01T08:16:10.284Z,99904.63
2022-12-01T08:18:38.782Z,99911.84
2022-12-01T08:21:06.745Z,99899.78
2022-12-01T08:23:35.731Z,99910.13
2022-12-01T08:26:06.625Z,99911.94
2022-12-01T08:28:36.153Z,99916.34
2022-12-01T08:31:17.828Z,99913.75
2022-12-01T08:33:44.646Z,99915.19
2022-12-01T08:36:11.208Z,99912.44
2022-12-01T08:38:38.160Z,99910.44
2022-12-01T08:41:07.919Z,99907.91
2022-12-01T08:43:57.167Z,99907.78
2022-12-01T08:46:28.393Z,99912.03
2022-12-01T08:48:58.487Z,99907.84
2022-12-01T08:51:25.929Z,99906.88
2022-12-01T08:53:52.490Z,99903.44
2022-12-01T08:56:34.498Z,99913.13
2022-12-01T08:59:01.149Z,99917.38
2022-12-01T09:01:28.229Z,99926.78
2022-12-01T09:04:05.930Z,99928.38
2022-12-01T09:06:37.640Z,99927.34
2022-12-01T09:09:04.319Z,99935.09
2022-12-01T09:11:30.912Z,99929.00
2022-12-01T09:14:02.695Z,99937.03
2022-12-01T09:16:31.934Z,99932.81
2022-12-01T09:19:05.217Z,99937.22
2022-12-01T09:21:34.352Z,99939.72
2022-12-01T09:24:02.892Z,99938.69
2022-12-01T09:26:30.094Z,99943.75
2022-12-01T09:29:01.969Z,99936.88
2022-12-01T09:31:28.760Z,99935.31
2022-12-01T09:34:06.484Z,99932.72
2022-12-01T09:36:37.774Z,99934.50
2022-12-01T09:39:09.767Z,99938.13
2022-12-01T09:41:42.272Z,99937.22
2022-12-01T09:44:37.932Z,99934.44
2022-12-01T09:47:14.433Z,99928.38
2022-12-01T09:49:49.935Z,99930.94
2022-12-01T09:52:19.689Z,99923.34
2022-12-01T09:54:47.670Z,99923.44
2022-12-01T09:57:39.470Z,99926.78
2022-12-01T10:00:21.443Z,99921.63
2022-12-01T10:02:56.879Z,99924.47
2022-12-01T10:05:29.243Z,99923.63
2022-12-01T10:08:00.640Z,99924.25
2022-12-01T10:10:34.599Z,99923.50
2022-12-01T10:13:01.342Z,99911.41
2022-12-01T10:15:51.231Z,99909.78
2022-12-01T10:18:36.271Z,99907.16
2022-12-01T10:21:16.586Z,99909.84
2022-12-01T10:23:58.133Z,99907.50
2022-12-01T10:27:11.717Z,99906.19
2022-12-01T10:29:50.218Z,99904.56
2022-12-01T10:32:58.822Z,99902.75
2022-12-01T10:35:29.282Z,99906.44
2022-12-01T10:38:01.566Z,99902.91
2022-12-01T10:40:35.234Z,99896.59
2022-12-01T10:43:02.232Z,99897.56
2022-12-01T10:45:34.417Z,99900.31
2022-12-01T10:48:26.502Z,99897.25
2022-12-01T10:50:55.393Z,99899.81
2022-12-01T10:53:36.656Z,99891.44
2022-12-01T10:56:12.756Z,99897.03
2022-12-01T10:58:45.514Z,99894.44
2022-12-01T11:01:19.667Z,99891.91
2022-12-01T11:04:10.703Z,99891.81
2022-12-01T11:06:37.661Z,99883.84
2022-12-01T11:09:20.268Z,99886.47
2022-12-01T11:12:02.616Z,99880.44
2022-12-01T11:14:47.143Z,99879.75
2022-12-01T11:17:24.960Z,99886.06
2022-12-01T11:19:54.877Z,99888.78
2022-12-01T11:22:28.688Z,99887.56
2022-12-01T11:24:55.174Z,99875.34
2022-12-01T11:27:34.912Z,99881.59
2022-12-01T11:30:06.623Z,99886.53
2022-12-01T11:32:37.828Z,99887.50
2022-12-01T11:35:26.013Z,99879.81
2022-12-01T11:40:51.356Z,99874.59
2022-12-01T11:43:27.348Z,99880.06
2022-12-01T11:45:55.939Z,99876.53
2022-12-01T11:48:25.571Z,99879.25
2022-12-01T11:51:07.196Z,99874.75
2022-12-01T11:53:38.451Z,99869.31
2022-12-01T11:56:29.144Z,99868.63
2022-12-01T11:59:17.138Z,99869.38
2022-12-01T12:02:02.310Z,99871.31
2022-12-01T12:05:02.708Z,99863.78
2022-12-01T12:07:44.514Z,99868.47
2022-12-01T12:10:53.306Z,99868.34
2022-12-01T12:13:40.527Z,99864.31
2022-12-01T12:16:12.985Z,99871.31
2022-12-01T12:18:45.858Z,99872.50
2022-12-01T12:21:12.251Z,99863.09
2022-12-01T12:24:16.970Z,99865.00
2022-12-01T12:26:58.626Z,99864.00
2022-12-01T12:29:56.775Z,99866.47
2022-12-01T12:32:42.055Z,99870.03
2022-12-01T12:35:30.773Z,99860.28
2022-12-01T12:38:15.384Z,99859.97
2022-12-01T12:40:47.594Z,99867.22
2022-12-01T12:43:36.913Z,99866.09
2022-12-01T12:46:11.246Z,99863.41
2022-12-01T12:49:03.917Z,99864.53
2022-12-01T12:51:36.155Z,99864.22
2022-12-01T12:54:21.411Z,99862.22
2022-12-01T12:56:53.129Z,99860.78
2022-12-01T12:59:24.562Z,99865.50
2022-12-01T13:02:04.717Z,99865.66
2022-12-01T13:04:37.949Z,99866.34
2022-12-01T13:07:28.826Z,99867.81
2022-12-01T13:10:02.788Z,99866.84
2022-12-01T13:12:39.329Z,99864.22
2022-12-01T13:15:13.627Z,99866.84
2022-12-01T13:17:44.671Z,99871.56
2022-12-01T13:20:18.332Z,99862.91
2022-12-01T13:22:49.788Z,99857.81
2022-12-01T13:25:24.729Z,99854.38
2022-12-01T13:27:56.615Z,99852.00
2022-12-01T13:30:24.622Z,99845.19
2022-12-01T13:33:03.205Z,99853.13
2022-12-01T13:35:39.845Z,99851.63
2022-12-01T13:38:20.194Z,99853.56
2022-12-01T13:40:49.217Z,99849.47
2022-12-01T13:43:20.150Z,99850.28
2022-12-01T13:45:48.458Z,99840.28
2022-12-01T13:48:51.946Z,99841.06
2022-12-01T13:51:18.553Z,99844.63
2022-12-01T13:54:01.418Z,99838.88
2022-12-01T13:56:45.166Z,99841.31
2022-12-01T13:59:50.742Z,99842.91
2022-12-01T14:02:21.055Z,99836.66
2022-12-01T14:04:51.026Z,99838.50
2022-12-01T14:07:29.615Z,99844.91
2022-12-01T14:10:06.319Z,99838.97
2022-12-01T14:12:37.717Z,99832.91
2022-12-01T14:15:42.684Z,99835.38
2022-12-01T14:18:18.470Z,99830.75
2022-12-01T14:20:49.321Z,99830.16
2022-12-01T14:23:29.023Z,99834.69
2022-12-01T14:26:21.578Z,99835.44
2022-12-01T14:29:00.508Z,99831.94
2022-12-01T14:31:33.302Z,99832.09
2022-12-01T14:34:24.203Z,99834.88
2022-12-01T14:37:02.425Z,99837.31
2022-12-01T14:39:32.845Z,99835.44
2022-12-01T14:42:46.217Z,99841.50
2022-12-01T14:45:17.267Z,99842.25
2022-12-01T14:47:50.978Z,99840.38
2022-12-01T14:50:31.839Z,99841.22
2022-12-01T14:53:15.849Z,99842.81
2022-12-01T14:55:50.184Z,99846.03
2022-12-01T14:58:29.156Z,99845.22
2022-12-01T15:00:59.624Z,99852.00
2022-12-01T15:03:32.250Z,99856.16
2022-12-01T15:05:58.880Z,99852.06
2022-12-01T15:08:58.356Z,99854.69
2022-12-01T15:11:25.941Z,99854.44
2022-12-01T15:13:56.717Z,99854.44
2022-12-01T15:16:40.169Z,99849.09
2022-12-01T15:19:33.343Z,99852.50
2022-12-01T15:22:05.101Z,99856.22
2022-12-01T15:24:33.891Z,99853.25
2022-12-01T15:27:04.013Z,99858.47
2022-12-01T15:29:49.517Z,99862.06
2022-12-01T15:32:18.672Z,99863.75
2022-12-01T15:34:49.230Z,99861.75
2022-12-01T15:37:19.242Z,99854.97
2022-12-01T15:39:49.506Z,99859.31
2022-12-01T15:42:25.473Z,99857.59
2022-12-01T15:45:01.472Z,99853.25
2022-12-01T15:47:46.523Z,99855.03
2022-12-01T15:50:31.368Z,99862.19
2022-12-01T15:53:01.267Z,99853.53
2022-12-01T15:55:33.069Z,99855.34
2022-12-01T15:58:07.868Z,99853.78
2022-12-01T16:00:35.122Z,99851.00
2022-12-01T16:03:02.494Z,99857.16
2022-12-01T16:05:32.511Z,99858.13
2022-12-01T16:08:16.976Z,99852.22
2022-12-01T16:10:43.529Z,99851.31
2022-12-01T16:13:34.901Z,99855.66
2022-12-01T16:16:19.083Z,99850.88
2022-12-01T16:18:54.537Z,99855.03
2022-12-01T16:21:21.718Z,99856.00
2022-12-01T16:23:48.507Z,99860.47
2022-12-01T16:26:18.531Z,99865.88
2022-12-01T16:28:45.132Z,99862.94
2022-12-01T16:31:19.365Z,99870.28
2022-12-01T16:33:46.357Z,99865.47
2022-12-01T16:36:15.997Z,99868.16
2022-12-01T16:38:42.847Z,99865.63
2022-12-01T16:41:18.270Z,99864.44
2022-12-01T16:44:12.383Z,99867.00
2022-12-01T16:46:36.556Z,99867.81
2022-12-01T16:49:03.174Z,99865.13
2022-12-01T16:51:54.190Z,99869.38
2022-12-01T16:54:16.660Z,99868.50
2022-12-01T16:56:43.188Z,99868.16
2022-12-01T16:59:09.666Z,99868.25
2022-12-01T17:01:36.151Z,99863.16
2022-12-01T17:04:07.729Z,99873.84
2022-12-01T17:06:38.376Z,99862.06
2022-12-01T17:09:05.051Z,99856.41
2022-12-01T17:11:32.202Z,99869.38
2022-12-01T17:13:59.012Z,99870.19
2022-12-01T17:16:25.581Z,99876.06
2022-12-01T17:18:55.044Z,99876.22
2022-12-01T17:21:21.568Z,99876.75
2022-12-01T17:23:48.101Z,99881.13
2022-12-01T17:26:17.546Z,99877.72
2022-12-01T17:28:46.083Z,99876.06
2022-12-01T17:31:12.932Z,99878.81
2022-12-01T17:33:39.903Z,99875.56
2022-12-01T17:36:10.026Z,99879.81
2022-12-01T17:38:41.702Z,99882.31
2022-12-01T17:41:13.845Z,99883.81
2022-12-01T17:43:40.539Z,99881.22
2022-12-01T17:46:09.341Z,99875.09
2022-12-01T17:48:41.338Z,99883.81
2022-12-01T17:51:08.912Z,99878.94
2022-12-01T17:53:37.092Z,99874.59
2022-12-01T17:56:13.438Z,99875.78
2022-12-01T17:58:40.112Z,99876.38
2022-12-01T18:01:12.308Z,99878.03
2022-12-01T18:03:39.742Z,99878.59
2022-12-01T18:06:06.421Z,99874.13
2022-12-01T18:08:36.162Z,99884.31
2022-12-01T18:11:07.952Z,99887.84
2022-12-01T18:13:39.115Z,99882.72
2022-12-01T18:16:11.910Z,99874.13
2022-12-01T18:18:38.577Z,99878.19
2022-12-01T18:21:06.682Z,99872.91
2022-12-01T18:23:36.484Z,99876.19
2022-12-01T18:26:13.729Z,99873.44
2022-12-01T18:28:42.890Z,99877.50
2022-12-01T18:31:11.654Z,99872.38
2022-12-01T18:33:44.283Z,99876.94
2022-12-01T18:36:16.492Z,99874.69
2022-12-01T18:38:43.238Z,99872.06
2022-12-01T18:41:09.993Z,99874.16
2022-12-01T18:43:37.178Z,99870.75
2022-12-01T18:46:04.704Z,99873.13
2022-12-01T18:48:31.840Z,99876.06
2022-12-01T18:51:05.785Z,99867.69
2022-12-01T18:53:33.285Z,99865.22
2022-12-01T18:56:10.278Z,99858.69
2022-12-01T18:58:39.266Z,99864.81
2022-12-01T19:01:27.354Z,99864.75
2022-12-01T19:03:58.510Z,99863.69
2022-12-01T19:06:26.084Z,99865.56
2022-12-01T19:08:53.442Z,99860.50
2022-12-01T19:11:20.934Z,99859.84
2022-12-01T19:13:52.565Z,99863.09
2022-12-01T19:16:20.238Z,99857.72
2022-12-01T19:18:47.150Z,99863.28
2022-12-01T19:21:16.375Z,99865.22
2022-12-01T19:23:43.934Z,99866.03
2022-12-01T19:26:13.292Z,99865.22
2022-12-01T19:28:42.054Z,99863.09
2022-12-01T19:31:11.411Z,99856.78
2022-12-01T19:33:38.196Z,99861.16
2022-12-01T19:36:07.112Z,99859.78
2022-12-01T19:38:33.722Z,99864.00
2022-12-01T19:41:00.926Z,99865.06
2022-12-01T19:43:27.527Z,99862.47
2022-12-01T19:45:54.168Z,99858.97
2022-12-01T19:48:20.892Z,99867.53
2022-12-01T19:50:47.411Z,99864.09
2022-12-01T19:53:15.059Z,99868.31
2022-12-01T19:55:41.515Z,99874.34
2022-12-01T19:58:08.503Z,99872.56
2022-12-01T20:00:35.044Z,99868.84
2022-12-01T20:03:01.673Z,99866.38
2022-12-01T20:05:28.177Z,99874.19
2022-12-01T20:07:54.767Z,99874.06
2022-12-01T20:10:21.306Z,99875.84
2022-12-01T20:12:47.953Z,99870.03
2022-12-01T20:15:15.659Z,99876.06
2022-12-01T20:17:43.014Z,99869.81
2022-12-01T20:20:11.180Z,99872.56
2022-12-01T20:22:38.122Z,99867.34
2022-12-01T20:25:06.096Z,99866.53
2022-12-01T20:27:32.941Z,99867.19
2022-12-01T20:29:59.490Z,99875.84
2022-12-01T20:32:26.013Z,99869.72
2022-12-01T20:34:52.841Z,99868.69
2022-12-01T20:37:19.542Z,99874.06
2022-12-01T20:39:48.524Z,99866.91
2022-12-01T20:42:15.110Z,99869.59
2022-12-01T20:44:41.672Z,99862.31
2022-12-01T20:47:08.137Z,99862.09
2022-12-01T20:49:34.816Z,99854.44
2022-12-01T20:52:01.324Z,99858.91
2022-12-01T20:54:29.586Z,99859.78
2022-12-01T20:56:57.033Z,99858.00
2022-12-01T20:59:24.041Z,99858.06
2022-12-01T21:01:50.818Z,99864.44
2022-12-01T21:04:17.352Z,99853.94
2022-12-01T21:06:43.964Z,99858.06
2022-12-01T21:09:11.554Z,99858.91
2022-12-01T21:12:06.729Z,99854.44
2022-12-01T21:14:36.488Z,99852.72
2022-12-01T21:17:14.859Z,99851.66
2022-12-01T21:19:52.103Z,99852.50
2022-12-01T21:22:20.125Z,99849.63
2022-12-01T21:24:51.064Z,99851.34
2022-12-01T21:27:20.699Z,99847.00
2022-12-01T21:29:48.905Z,99844.41
2022-12-01T21:32:19.091Z,99854.84
2022-12-01T21:34:47.576Z,99861.00
2022-12-01T21:37:23.010Z,99852.22
2022-12-01T21:39:56.063Z,99849.63
2022-12-01T21:42:29.959Z,99845.91
2022-12-01T21:45:00.261Z,99849.41
2022-12-01T21:47:38.458Z,99846.72
2022-12-01T21:50:14.251Z,99845.91
2022-12-01T21:52:42.659Z,99841.56
2022-12-01T21:55:15.145Z,99850.44
2022-12-01T21:57:44.699Z,99841.66
2022-12-01T22:00:30.747Z,99839.72
2022-12-01T22:03:09.224Z,99837.03
2022-12-01T22:06:01.127Z,99842.31
2022-12-01T22:08:35.120Z,99837.94
2022-12-01T22:11:24.298Z,99831.72
2022-12-01T22:14:09.029Z,99831.16
2022-12-01T22:16:40.158Z,99831.06
2022-12-01T22:19:33.659Z,99831.97
2022-12-01T22:22:14.205Z,99828.22
2022-12-01T22:24:52.299Z,99829.63
2022-12-01T22:27:27.892Z,99826.34
2022-12-01T22:30:00.694Z,99821.97
2022-12-01T22:32:31.698Z,99821.06
2022-12-01T22:35:14.369Z,99818.47
2022-12-01T22:37:46.403Z,99823.75
2022-12-01T22:40:39.484Z,99821.81
2022-12-01T22:43:57.524Z,99821.13
2022-12-01T22:46:25.912Z,99829.94
2022-12-01T22:49:01.524Z,99823.25
2022-12-01T22:51:42.141Z,99810.41
2022-12-01T22:54:14.681Z,99814.63
2022-12-01T22:57:03.585Z,99807.81
2022-12-01T22:59:38.795Z,99805.44
2022-12-01T23:02:24.521Z,99808.44
2022-12-01T23:04:59.904Z,99808.78
2022-12-01T23:07:42.084Z,99804.19
2022-12-01T23:10:28.600Z,99813.03
2022-12-01T23:13:05.404Z,99802.34
2022-12-01T23:15:44.219Z,99796.81
2022-12-01T23:18:16.192Z,99800.31
2022-12-01T23:20:43.886Z,99797.06
2022-12-01T23:23:25.616Z,99789.00
2022-12-01T23:25:52.293Z,99796.97
2022-12-01T23:28:19.492Z,99792.50
2022-12-01T23:30:49.257Z,99789.56
2022-12-01T23:33:21.900Z,99792.09
2022-12-01T23:35:51.191Z,99786.66
2022-12-01T23:38:29.156Z,99782.41
2022-12-01T23:41:00.989Z,99774.59
2022-12-01T23:43:30.110Z,99774.38
2022-12-01T23:46:10.023Z,99775.28
2022-12-01T23:48:42.945Z,99769.41
2022-12-01T23:51:23.519Z,99771.09
2022-12-01T23:53:51.950Z,99779.16
2022-12-01T23:56:24.354Z,99772.00
2022-12-01T23:58:56.677Z,99777.22
